createdAt,value
2015-05-14T00:00:08.147Z,0
2015-05-14T00:00:26.384Z,0
2015-05-14T00:00:44.618Z,0
2015-05-14T00:01:02.884Z,0
2015-05-14T00:01:21.136Z,0
2015-05-14T00:01:39.386Z,0
2015-05-14T00:01:57.636Z,0
2015-05-14T00:02:15.888Z,0
2015-05-14T00:02:34.154Z,0
2015-05-14T00:02:52.404Z,0
2015-05-14T00:03:10.638Z,0
2015-05-14T00:03:28.891Z,0
2015-05-14T00:03:47.141Z,0
2015-05-14T00:04:05.391Z,0
2015-05-14T00:04:23.642Z,0
2015-05-14T00:04:41.892Z,0
2015-05-14T00:05:00.142Z,0
2015-05-14T00:05:18.395Z,0
2015-05-14T00:05:36.661Z,0
2015-05-14T00:05:54.911Z,0
2015-05-14T00:06:13.176Z,0
2015-05-14T00:06:31.429Z,0
2015-05-14T00:06:49.664Z,0
2015-05-14T00:07:07.914Z,0
2015-05-14T00:07:26.166Z,0
2015-05-14T00:07:44.416Z,0
2015-05-14T00:08:02.697Z,0
2015-05-14T00:08:20.918Z,0
2015-05-14T00:08:39.168Z,0
2015-05-14T00:08:57.418Z,0
2015-05-14T00:09:15.668Z,0
2015-05-14T00:09:33.921Z,0
2015-05-14T00:09:52.171Z,0
2015-05-14T00:10:10.421Z,0
2015-05-14T00:10:28.657Z,0
2015-05-14T00:10:46.907Z,0
2015-05-14T00:11:05.157Z,0
2015-05-14T00:11:23.410Z,0
2015-05-14T00:11:41.660Z,0
2015-05-14T00:11:59.910Z,0
2015-05-14T00:12:18.144Z,0
2015-05-14T00:12:36.395Z,0
2015-05-14T00:12:54.645Z,0
2015-05-14T00:13:12.895Z,0
2015-05-14T00:13:31.133Z,0
2015-05-14T00:13:49.383Z,0
2015-05-14T00:14:07.633Z,0
2015-05-14T00:14:25.914Z,0
2015-05-14T00:14:44.135Z,0
2015-05-14T00:15:02.400Z,0
2015-05-14T00:15:20.650Z,0
2015-05-14T00:15:38.902Z,0
2015-05-14T00:15:57.152Z,0
2015-05-14T00:16:15.402Z,0
2015-05-14T00:16:33.652Z,0
2015-05-14T00:16:51.906Z,0
2015-05-14T00:17:10.156Z,0
2015-05-14T00:17:28.406Z,0
2015-05-14T00:17:46.657Z,0
2015-05-14T00:18:04.923Z,0
2015-05-14T00:18:23.173Z,0
2015-05-14T00:18:41.423Z,0
2015-05-14T00:18:59.676Z,0
2015-05-14T00:19:17.973Z,0
2015-05-14T00:19:36.160Z,0
2015-05-14T00:19:54.413Z,0
2015-05-14T00:20:12.663Z,0
2015-05-14T00:20:30.913Z,0
2015-05-14T00:20:49.180Z,0
2015-05-14T00:21:07.414Z,0
2015-05-14T00:21:25.664Z,0
2015-05-14T00:21:43.914Z,0
2015-05-14T00:22:02.167Z,0
2015-05-14T00:22:20.417Z,0
2015-05-14T00:22:38.667Z,0
2015-05-14T00:22:56.920Z,0
2015-05-14T00:23:15.170Z,0
2015-05-14T00:23:33.420Z,0
2015-05-14T00:23:51.671Z,0
2015-05-14T00:24:09.921Z,0
2015-05-14T00:24:28.171Z,0
2015-05-14T00:24:46.265Z,0
2015-05-14T00:25:04.518Z,0
2015-05-14T00:25:22.768Z,0
2015-05-14T00:25:41.018Z,0
2015-05-14T00:25:59.270Z,0
2015-05-14T00:26:17.520Z,0
2015-05-14T00:26:35.770Z,0
2015-05-14T00:26:54.023Z,0
2015-05-14T00:27:12.273Z,0
2015-05-14T00:27:30.523Z,0
2015-05-14T00:27:48.773Z,0
2015-05-14T00:28:07.025Z,0
2015-05-14T00:28:25.275Z,0
2015-05-14T00:28:43.525Z,0
2015-05-14T00:29:01.777Z,0
2015-05-14T00:29:20.027Z,0
2015-05-14T00:29:38.277Z,0
2015-05-14T00:29:56.529Z,0
2015-05-14T00:30:14.779Z,0
2015-05-14T00:30:33.029Z,0
2015-05-14T00:30:51.279Z,0
2015-05-14T00:31:09.532Z,0
2015-05-14T00:31:27.782Z,0
2015-05-14T00:31:46.032Z,0
2015-05-14T00:32:04.285Z,0
2015-05-14T00:32:22.520Z,0
2015-05-14T00:32:40.770Z,0
2015-05-14T00:32:59.035Z,0
2015-05-14T00:33:17.272Z,0
2015-05-14T00:33:35.522Z,0
2015-05-14T00:33:53.772Z,0
2015-05-14T00:34:12.024Z,0
2015-05-14T00:34:30.102Z,0
2015-05-14T00:34:48.352Z,0
2015-05-14T00:35:06.602Z,0
2015-05-14T00:35:24.855Z,0
2015-05-14T00:35:43.089Z,0
2015-05-14T00:36:01.339Z,0
2015-05-14T00:36:19.607Z,0
2015-05-14T00:36:37.841Z,0
2015-05-14T00:36:56.075Z,0
2015-05-14T00:37:14.328Z,0
2015-05-14T00:37:32.594Z,0
2015-05-14T00:37:50.844Z,0
2015-05-14T00:38:09.110Z,0
2015-05-14T00:38:27.376Z,0
2015-05-14T00:38:45.611Z,0
2015-05-14T00:39:03.861Z,0
2015-05-14T00:39:22.114Z,0
2015-05-14T00:39:40.364Z,0
2015-05-14T00:39:58.614Z,0
2015-05-14T00:40:16.866Z,0
2015-05-14T00:40:35.116Z,0
2015-05-14T00:40:53.366Z,0
2015-05-14T00:41:11.616Z,0
2015-05-14T00:41:29.853Z,0
2015-05-14T00:41:48.103Z,0
2015-05-14T00:42:06.353Z,0
2015-05-14T00:42:24.605Z,0
2015-05-14T00:42:42.855Z,0
2015-05-14T00:43:01.089Z,0
2015-05-14T00:43:19.341Z,0
2015-05-14T00:43:37.591Z,0
2015-05-14T00:43:55.841Z,0
2015-05-14T00:44:14.091Z,0
2015-05-14T00:44:32.329Z,0
2015-05-14T00:44:50.579Z,0
2015-05-14T00:45:08.829Z,0
2015-05-14T00:45:27.081Z,0
2015-05-14T00:45:45.331Z,0
2015-05-14T00:46:03.581Z,0
2015-05-14T00:46:21.831Z,0
2015-05-14T00:46:40.068Z,0
2015-05-14T00:46:58.318Z,0
2015-05-14T00:47:16.568Z,0
2015-05-14T00:47:34.821Z,0
2015-05-14T00:47:53.056Z,0
2015-05-14T00:48:11.306Z,0
2015-05-14T00:48:29.556Z,0
2015-05-14T00:48:47.808Z,0
2015-05-14T00:49:06.058Z,0
2015-05-14T00:49:24.308Z,0
2015-05-14T00:49:42.560Z,0
2015-05-14T00:50:00.810Z,0
2015-05-14T00:50:19.060Z,0
2015-05-14T00:50:37.310Z,0
2015-05-14T00:50:55.562Z,0
2015-05-14T00:51:13.812Z,0
2015-05-14T00:51:32.077Z,0
2015-05-14T00:51:50.315Z,0
2015-05-14T00:52:08.565Z,0
2015-05-14T00:52:26.799Z,0
2015-05-14T00:52:45.051Z,0
2015-05-14T00:53:03.301Z,0
2015-05-14T00:53:21.551Z,0
2015-05-14T00:53:39.801Z,0
2015-05-14T00:53:58.038Z,0
2015-05-14T00:54:16.288Z,0
2015-05-14T00:54:34.538Z,0
2015-05-14T00:54:52.790Z,0
2015-05-14T00:55:11.025Z,0
2015-05-14T00:55:29.275Z,0
2015-05-14T00:55:47.527Z,0
2015-05-14T00:56:05.777Z,0
2015-05-14T00:56:24.027Z,0
2015-05-14T00:56:42.277Z,0
2015-05-14T00:57:00.530Z,0
2015-05-14T00:57:18.780Z,0
2015-05-14T00:57:37.030Z,0
2015-05-14T00:57:55.282Z,0
2015-05-14T00:58:13.516Z,0
2015-05-14T00:58:31.766Z,0
2015-05-14T00:58:50.019Z,0
2015-05-14T00:59:08.269Z,0
2015-05-14T00:59:26.519Z,0
2015-05-14T00:59:44.753Z,0
2015-05-14T01:00:03.004Z,0
2015-05-14T01:00:21.239Z,0
2015-05-14T01:00:39.489Z,0
2015-05-14T01:00:57.742Z,0
2015-05-14T01:01:15.976Z,0
2015-05-14T01:01:34.242Z,0
2015-05-14T01:01:52.494Z,0
2015-05-14T01:02:10.744Z,0
2015-05-14T01:02:28.994Z,0
2015-05-14T01:02:47.244Z,0
2015-05-14T01:03:05.481Z,0
2015-05-14T01:03:23.731Z,0
2015-05-14T01:03:41.981Z,0
2015-05-14T01:04:00.233Z,0
2015-05-14T01:04:18.483Z,0
2015-05-14T01:04:36.718Z,0
2015-05-14T01:04:54.970Z,0
2015-05-14T01:05:13.220Z,0
2015-05-14T01:05:31.470Z,0
2015-05-14T01:05:49.704Z,0
2015-05-14T01:06:07.941Z,0
2015-05-14T01:06:26.191Z,0
2015-05-14T01:06:44.441Z,0
2015-05-14T01:07:02.693Z,0
2015-05-14T01:07:20.943Z,0
2015-05-14T01:07:39.178Z,0
2015-05-14T01:07:57.428Z,0
2015-05-14T01:08:15.665Z,0
2015-05-14T01:08:33.915Z,0
2015-05-14T01:08:52.165Z,0
2015-05-14T01:09:10.401Z,0
2015-05-14T01:09:28.651Z,0
2015-05-14T01:09:46.886Z,0
2015-05-14T01:10:05.136Z,0
2015-05-14T01:10:23.388Z,0
2015-05-14T01:10:41.638Z,0
2015-05-14T01:10:59.903Z,0
2015-05-14T01:11:18.141Z,0
2015-05-14T01:11:36.391Z,0
2015-05-14T01:11:54.656Z,0
2015-05-14T01:12:12.906Z,0
2015-05-14T01:12:31.144Z,0
2015-05-14T01:12:49.394Z,0
2015-05-14T01:13:07.628Z,0
2015-05-14T01:13:25.880Z,0
2015-05-14T01:13:44.130Z,0
2015-05-14T01:14:02.365Z,0
2015-05-14T01:14:20.615Z,0
2015-05-14T01:14:38.867Z,0
2015-05-14T01:14:57.117Z,0
2015-05-14T01:15:15.367Z,0
2015-05-14T01:15:33.620Z,0
2015-05-14T01:15:51.870Z,0
2015-05-14T01:16:10.120Z,0
2015-05-14T01:16:28.372Z,0
2015-05-14T01:16:46.606Z,0
2015-05-14T01:17:04.856Z,0
2015-05-14T01:17:23.106Z,0
2015-05-14T01:17:41.358Z,0
2015-05-14T01:17:59.608Z,0
2015-05-14T01:18:17.858Z,0
2015-05-14T01:18:36.110Z,0
2015-05-14T01:18:54.344Z,0
2015-05-14T01:19:12.594Z,0
2015-05-14T01:19:30.847Z,0
2015-05-14T01:19:49.097Z,0
2015-05-14T01:20:07.332Z,0
2015-05-14T01:20:25.582Z,0
2015-05-14T01:20:43.818Z,0
2015-05-14T01:21:02.068Z,0
2015-05-14T01:21:20.318Z,0
2015-05-14T01:21:38.571Z,0
2015-05-14T01:21:56.821Z,0
2015-05-14T01:22:15.055Z,0
2015-05-14T01:22:33.307Z,0
2015-05-14T01:22:51.557Z,0
2015-05-14T01:23:09.792Z,0
2015-05-14T01:23:28.042Z,0
2015-05-14T01:23:46.278Z,0
2015-05-14T01:24:04.528Z,0
2015-05-14T01:24:22.763Z,0
2015-05-14T01:24:41.016Z,0
2015-05-14T01:24:59.266Z,0
2015-05-14T01:25:17.516Z,0
2015-05-14T01:25:35.768Z,0
2015-05-14T01:25:54.002Z,0
2015-05-14T01:26:12.252Z,0
2015-05-14T01:26:30.502Z,0
2015-05-14T01:26:48.755Z,0
2015-05-14T01:27:06.989Z,0
2015-05-14T01:27:25.239Z,0
2015-05-14T01:27:43.490Z,0
2015-05-14T01:28:01.740Z,0
2015-05-14T01:28:19.990Z,0
2015-05-14T01:28:38.240Z,0
2015-05-14T01:28:56.494Z,0
2015-05-14T01:29:14.744Z,0
2015-05-14T01:29:32.994Z,0
2015-05-14T01:29:51.246Z,0
2015-05-14T01:30:09.496Z,0
2015-05-14T01:30:27.746Z,0
2015-05-14T01:30:45.996Z,0
2015-05-14T01:31:04.248Z,0
2015-05-14T01:31:22.498Z,0
2015-05-14T01:31:40.748Z,0
2015-05-14T01:31:59.376Z,0
2015-05-14T01:32:17.626Z,0
2015-05-14T01:32:35.876Z,0
2015-05-14T01:32:54.128Z,0
2015-05-14T01:33:12.394Z,0
2015-05-14T01:33:30.628Z,0
2015-05-14T01:33:48.863Z,0
2015-05-14T01:34:07.116Z,0
2015-05-14T01:34:25.381Z,0
2015-05-14T01:34:43.616Z,0
2015-05-14T01:35:01.867Z,0
2015-05-14T01:35:20.117Z,0
2015-05-14T01:35:38.351Z,0
2015-05-14T01:35:56.604Z,0
2015-05-14T01:36:14.854Z,0
2015-05-14T01:36:33.120Z,0
2015-05-14T01:36:51.354Z,0
2015-05-14T01:37:09.606Z,0
2015-05-14T01:37:27.840Z,0
2015-05-14T01:37:46.106Z,0
2015-05-14T01:38:04.359Z,0
2015-05-14T01:38:22.609Z,0
2015-05-14T01:38:40.859Z,0
2015-05-14T01:38:59.111Z,0
2015-05-14T01:39:17.361Z,0
2015-05-14T01:39:35.611Z,0
2015-05-14T01:39:53.861Z,0
2015-05-14T01:40:12.129Z,0
2015-05-14T01:40:30.379Z,0
2015-05-14T01:40:48.629Z,0
2015-05-14T01:41:06.897Z,0
2015-05-14T01:41:25.163Z,0
2015-05-14T01:41:43.397Z,0
2015-05-14T01:42:01.649Z,0
2015-05-14T01:42:19.899Z,0
2015-05-14T01:42:38.149Z,0
2015-05-14T01:42:56.399Z,0
2015-05-14T01:43:14.652Z,0
2015-05-14T01:43:32.902Z,0
2015-05-14T01:43:51.152Z,0
2015-05-14T01:44:09.404Z,0
2015-05-14T01:44:27.654Z,0
2015-05-14T01:44:45.889Z,0
2015-05-14T01:45:04.156Z,0
2015-05-14T01:45:22.391Z,0
2015-05-14T01:45:40.656Z,0
2015-05-14T01:45:58.906Z,0
2015-05-14T01:46:17.159Z,0
2015-05-14T01:46:35.409Z,0
2015-05-14T01:46:53.659Z,0
2015-05-14T01:47:11.911Z,0
2015-05-14T01:47:30.146Z,0
2015-05-14T01:47:48.411Z,0
2015-05-14T01:48:06.646Z,0
2015-05-14T01:48:24.898Z,0
2015-05-14T01:48:43.148Z,0
2015-05-14T01:49:01.398Z,0
2015-05-14T01:49:19.651Z,0
2015-05-14T01:49:37.885Z,0
2015-05-14T01:49:56.135Z,0
2015-05-14T01:50:14.385Z,0
2015-05-14T01:50:32.637Z,0
2015-05-14T01:50:50.887Z,0
2015-05-14T01:51:09.137Z,0
2015-05-14T01:51:27.389Z,0
2015-05-14T01:51:45.639Z,0
2015-05-14T01:52:03.889Z,0
2015-05-14T01:52:22.141Z,0
2015-05-14T01:52:40.391Z,0
2015-05-14T01:52:58.641Z,0
2015-05-14T01:53:16.875Z,0
2015-05-14T01:53:35.128Z,0
2015-05-14T01:53:53.378Z,0
2015-05-14T01:54:11.628Z,0
2015-05-14T01:54:29.880Z,0
2015-05-14T01:54:48.130Z,0
2015-05-14T01:55:06.380Z,0
2015-05-14T01:55:24.617Z,0
2015-05-14T01:55:42.882Z,0
2015-05-14T01:56:01.132Z,0
2015-05-14T01:56:19.382Z,0
2015-05-14T01:56:37.620Z,0
2015-05-14T01:56:55.870Z,0
2015-05-14T01:57:14.120Z,0
2015-05-14T01:57:32.373Z,0
2015-05-14T01:57:50.607Z,0
2015-05-14T01:58:08.857Z,0
2015-05-14T01:58:27.109Z,0
2015-05-14T01:58:45.375Z,0
2015-05-14T01:59:03.625Z,0
2015-05-14T01:59:21.875Z,0
2015-05-14T01:59:40.127Z,0
2015-05-14T01:59:58.377Z,0
2015-05-14T02:00:16.627Z,0
2015-05-14T02:00:34.879Z,0
2015-05-14T02:00:53.144Z,0
2015-05-14T02:01:11.394Z,0
2015-05-14T02:01:29.646Z,0
2015-05-14T02:01:47.896Z,0
2015-05-14T02:02:06.146Z,0
2015-05-14T02:02:24.396Z,0
2015-05-14T02:02:42.649Z,0
2015-05-14T02:03:00.899Z,0
2015-05-14T02:03:19.165Z,0
2015-05-14T02:03:37.401Z,0
2015-05-14T02:03:55.651Z,0
2015-05-14T02:04:13.901Z,0
2015-05-14T02:04:32.154Z,0
2015-05-14T02:04:50.404Z,0
2015-05-14T02:05:08.654Z,0
2015-05-14T02:05:26.904Z,0
2015-05-14T02:05:45.157Z,0
2015-05-14T02:06:03.392Z,0
2015-05-14T02:06:21.642Z,0
2015-05-14T02:06:39.894Z,0
2015-05-14T02:06:58.144Z,0
2015-05-14T02:07:16.394Z,0
2015-05-14T02:07:34.644Z,0
2015-05-14T02:07:52.880Z,0
2015-05-14T02:08:11.130Z,0
2015-05-14T02:08:29.380Z,0
2015-05-14T02:08:47.632Z,0
2015-05-14T02:09:05.867Z,0
2015-05-14T02:09:24.117Z,0
2015-05-14T02:09:42.354Z,0
2015-05-14T02:10:00.604Z,0
2015-05-14T02:10:18.854Z,0
2015-05-14T02:10:37.104Z,0
2015-05-14T02:10:55.356Z,0
2015-05-14T02:11:13.606Z,0
2015-05-14T02:11:31.856Z,0
2015-05-14T02:11:50.108Z,0
2015-05-14T02:12:08.358Z,0
2015-05-14T02:12:26.624Z,0
2015-05-14T02:12:44.876Z,0
2015-05-14T02:13:03.126Z,0
2015-05-14T02:13:21.376Z,0
2015-05-14T02:13:39.641Z,0
2015-05-14T02:13:57.879Z,0
2015-05-14T02:14:16.160Z,0
2015-05-14T02:14:34.394Z,0
2015-05-14T02:14:52.647Z,0
2015-05-14T02:15:10.897Z,0
2015-05-14T02:15:29.147Z,0
2015-05-14T02:15:47.399Z,0
2015-05-14T02:16:05.649Z,0
2015-05-14T02:16:23.899Z,0
2015-05-14T02:16:42.149Z,0
2015-05-14T02:17:00.401Z,0
2015-05-14T02:17:18.636Z,0
2015-05-14T02:17:36.901Z,0
2015-05-14T02:17:55.138Z,0
2015-05-14T02:18:13.231Z,0
2015-05-14T02:18:31.481Z,0
2015-05-14T02:18:49.716Z,0
2015-05-14T02:19:07.969Z,0
2015-05-14T02:19:26.219Z,0
2015-05-14T02:19:44.469Z,0
2015-05-14T02:20:02.721Z,0
2015-05-14T02:20:20.971Z,0
2015-05-14T02:20:39.221Z,0
2015-05-14T02:20:57.455Z,0
2015-05-14T02:21:15.708Z,0
2015-05-14T02:21:33.958Z,0
2015-05-14T02:21:52.208Z,0
2015-05-14T02:22:10.460Z,0
2015-05-14T02:22:28.710Z,0
2015-05-14T02:22:46.960Z,0
2015-05-14T02:23:05.213Z,0
2015-05-14T02:23:23.463Z,0
2015-05-14T02:23:41.713Z,0
2015-05-14T02:23:59.979Z,0
2015-05-14T02:24:18.199Z,0
2015-05-14T02:24:36.449Z,0
2015-05-14T02:24:54.699Z,0
2015-05-14T02:25:12.936Z,0
2015-05-14T02:25:31.186Z,0
2015-05-14T02:25:49.436Z,0
2015-05-14T02:26:07.688Z,0
2015-05-14T02:26:25.938Z,0
2015-05-14T02:26:44.188Z,0
2015-05-14T02:27:02.438Z,0
2015-05-14T02:27:20.690Z,0
2015-05-14T02:27:38.940Z,0
2015-05-14T02:27:57.190Z,0
2015-05-14T02:28:15.443Z,0
2015-05-14T02:28:33.693Z,0
2015-05-14T02:28:51.943Z,0
2015-05-14T02:29:10.195Z,0
2015-05-14T02:29:28.445Z,0
2015-05-14T02:29:46.695Z,0
2015-05-14T02:30:04.929Z,0
2015-05-14T02:30:23.181Z,0
2015-05-14T02:30:41.431Z,0
2015-05-14T02:30:59.681Z,0
2015-05-14T02:31:17.919Z,0
2015-05-14T02:31:36.200Z,0
2015-05-14T02:31:54.434Z,0
2015-05-14T02:32:12.687Z,0
2015-05-14T02:32:30.937Z,0
2015-05-14T02:32:49.187Z,0
2015-05-14T02:33:07.437Z,0
2015-05-14T02:33:25.689Z,0
2015-05-14T02:33:43.939Z,0
2015-05-14T02:34:02.189Z,0
2015-05-14T02:34:20.426Z,0
2015-05-14T02:34:38.676Z,0
2015-05-14T02:34:56.941Z,0
2015-05-14T02:35:15.193Z,0
2015-05-14T02:35:33.443Z,0
2015-05-14T02:35:51.693Z,0
2015-05-14T02:36:09.943Z,0
2015-05-14T02:36:28.181Z,0
2015-05-14T02:36:46.431Z,0
2015-05-14T02:37:04.696Z,0
2015-05-14T02:37:22.949Z,0
2015-05-14T02:37:41.199Z,0
2015-05-14T02:37:59.434Z,0
2015-05-14T02:38:17.684Z,0
2015-05-14T02:38:35.936Z,0
2015-05-14T02:38:54.186Z,0
2015-05-14T02:39:12.436Z,0
2015-05-14T02:39:30.672Z,0
2015-05-14T02:39:48.938Z,0
2015-05-14T02:40:07.188Z,0
2015-05-14T02:40:25.438Z,0
2015-05-14T02:40:43.675Z,1
2015-05-14T02:41:01.941Z,1
2015-05-14T02:41:20.175Z,1
2015-05-14T02:41:38.444Z,1
2015-05-14T02:41:56.694Z,1
2015-05-14T02:42:14.944Z,1
2015-05-14T02:42:33.194Z,1
2015-05-14T02:42:51.446Z,1
2015-05-14T02:43:09.680Z,1
2015-05-14T02:43:27.930Z,2
2015-05-14T02:43:46.182Z,2
2015-05-14T02:44:04.448Z,2
2015-05-14T02:44:22.682Z,2
2015-05-14T02:44:40.932Z,2
2015-05-14T02:44:59.200Z,2
2015-05-14T02:45:17.434Z,2
2015-05-14T02:45:35.684Z,2
2015-05-14T02:45:53.937Z,3
2015-05-14T02:46:12.187Z,3
2015-05-14T02:46:30.437Z,3
2015-05-14T02:46:48.689Z,3
2015-05-14T02:47:06.939Z,3
2015-05-14T02:47:25.189Z,3
2015-05-14T02:47:43.439Z,4
2015-05-14T02:48:01.707Z,4
2015-05-14T02:48:19.941Z,4
2015-05-14T02:48:38.191Z,4
2015-05-14T02:48:56.444Z,4
2015-05-14T02:49:14.710Z,5
2015-05-14T02:49:32.960Z,5
2015-05-14T02:49:51.212Z,5
2015-05-14T02:50:09.462Z,5
2015-05-14T02:50:27.696Z,5
2015-05-14T02:50:45.946Z,6
2015-05-14T02:51:04.198Z,6
2015-05-14T02:51:22.448Z,6
2015-05-14T02:51:40.698Z,6
2015-05-14T02:51:58.951Z,7
2015-05-14T02:52:17.201Z,7
2015-05-14T02:52:35.451Z,7
2015-05-14T02:52:53.703Z,8
2015-05-14T02:53:11.937Z,8
2015-05-14T02:53:30.203Z,8
2015-05-14T02:53:48.453Z,8
2015-05-14T02:54:06.721Z,9
2015-05-14T02:54:24.955Z,9
2015-05-14T02:54:43.189Z,9
2015-05-14T02:55:01.458Z,10
2015-05-14T02:55:19.692Z,10
2015-05-14T02:55:37.942Z,10
2015-05-14T02:55:56.195Z,11
2015-05-14T02:56:14.461Z,11
2015-05-14T02:56:32.695Z,11
2015-05-14T02:56:50.945Z,12
2015-05-14T02:57:09.196Z,12
2015-05-14T02:57:27.431Z,12
2015-05-14T02:57:45.696Z,18
2015-05-14T02:58:03.934Z,18
2015-05-14T02:58:22.184Z,19
2015-05-14T02:58:40.434Z,19
2015-05-14T02:58:58.686Z,20
2015-05-14T02:59:16.920Z,20
2015-05-14T02:59:35.170Z,21
2015-05-14T02:59:53.420Z,21
2015-05-14T03:00:11.673Z,21
2015-05-14T03:00:29.923Z,22
2015-05-14T03:00:48.173Z,23
2015-05-14T03:01:06.425Z,23
2015-05-14T03:01:24.675Z,24
2015-05-14T03:01:42.925Z,24
2015-05-14T03:02:01.175Z,24
2015-05-14T03:02:19.428Z,25
2015-05-14T03:02:37.678Z,26
2015-05-14T03:02:55.928Z,26
2015-05-14T03:03:14.180Z,27
2015-05-14T03:03:32.430Z,27
2015-05-14T03:03:50.680Z,28
2015-05-14T03:04:08.930Z,29
2015-05-14T03:04:27.182Z,29
2015-05-14T03:04:45.432Z,30
2015-05-14T03:05:03.682Z,30
2015-05-14T03:05:21.935Z,31
2015-05-14T03:05:40.185Z,32
2015-05-14T03:05:58.435Z,32
2015-05-14T03:06:16.685Z,33
2015-05-14T03:06:34.937Z,34
2015-05-14T03:06:53.187Z,34
2015-05-14T03:07:11.437Z,35
2015-05-14T03:07:29.674Z,36
2015-05-14T03:07:47.940Z,37
2015-05-14T03:08:06.190Z,37
2015-05-14T03:08:24.425Z,38
2015-05-14T03:08:42.675Z,39
2015-05-14T03:09:00.941Z,40
2015-05-14T03:09:19.191Z,41
2015-05-14T03:09:37.445Z,41
2015-05-14T03:09:55.679Z,42
2015-05-14T03:10:13.929Z,43
2015-05-14T03:10:32.181Z,43
2015-05-14T03:10:50.431Z,44
2015-05-14T03:11:08.666Z,45
2015-05-14T03:11:26.933Z,45
2015-05-14T03:11:45.168Z,45
2015-05-14T03:12:03.418Z,46
2015-05-14T03:12:21.668Z,47
2015-05-14T03:12:39.920Z,47
2015-05-14T03:12:58.170Z,48
2015-05-14T03:13:16.420Z,48
2015-05-14T03:13:34.673Z,49
2015-05-14T03:13:52.923Z,49
2015-05-14T03:14:11.173Z,50
2015-05-14T03:14:29.409Z,51
2015-05-14T03:14:47.675Z,51
2015-05-14T03:15:05.925Z,52
2015-05-14T03:15:24.175Z,52
2015-05-14T03:15:42.427Z,53
2015-05-14T03:16:00.677Z,53
2015-05-14T03:16:18.927Z,53
2015-05-14T03:16:37.180Z,55
2015-05-14T03:16:55.430Z,56
2015-05-14T03:17:13.680Z,57
2015-05-14T03:17:31.916Z,59
2015-05-14T03:17:50.166Z,62
2015-05-14T03:18:08.416Z,64
2015-05-14T03:18:26.666Z,66
2015-05-14T03:18:44.919Z,68
2015-05-14T03:19:03.169Z,70
2015-05-14T03:19:21.419Z,71
2015-05-14T03:19:39.671Z,73
2015-05-14T03:19:57.921Z,73
2015-05-14T03:20:16.171Z,73
2015-05-14T03:20:34.406Z,73
2015-05-14T03:20:52.674Z,74
2015-05-14T03:21:10.924Z,74
2015-05-14T03:21:29.174Z,75
2015-05-14T03:21:47.411Z,76
2015-05-14T03:22:05.661Z,78
2015-05-14T03:22:23.926Z,79
2015-05-14T03:22:42.176Z,80
2015-05-14T03:23:00.428Z,81
2015-05-14T03:23:18.678Z,82
2015-05-14T03:23:36.928Z,83
2015-05-14T03:23:55.181Z,84
2015-05-14T03:24:13.416Z,85
2015-05-14T03:24:31.666Z,86
2015-05-14T03:24:49.916Z,81
2015-05-14T03:25:08.183Z,77
2015-05-14T03:25:26.433Z,78
2015-05-14T03:25:44.683Z,78
2015-05-14T03:26:02.935Z,79
2015-05-14T03:26:21.185Z,80
2015-05-14T03:26:39.435Z,81
2015-05-14T03:26:57.688Z,82
2015-05-14T03:27:15.938Z,83
2015-05-14T03:27:34.188Z,84
2015-05-14T03:27:52.438Z,85
2015-05-14T03:28:10.675Z,86
2015-05-14T03:28:28.925Z,87
2015-05-14T03:28:47.175Z,88
2015-05-14T03:29:05.428Z,89
2015-05-14T03:29:23.678Z,90
2015-05-14T03:29:41.928Z,91
2015-05-14T03:30:00.179Z,92
2015-05-14T03:30:18.429Z,93
2015-05-14T03:30:36.679Z,94
2015-05-14T03:30:54.929Z,95
2015-05-14T03:31:13.182Z,96
2015-05-14T03:31:31.416Z,97
2015-05-14T03:31:49.666Z,99
2015-05-14T03:32:07.918Z,100
2015-05-14T03:32:26.168Z,101
2015-05-14T03:32:44.418Z,102
2015-05-14T03:33:02.671Z,103
2015-05-14T03:33:20.921Z,104
2015-05-14T03:33:39.171Z,104
2015-05-14T03:33:57.421Z,105
2015-05-14T03:34:15.673Z,106
2015-05-14T03:34:33.923Z,106
2015-05-14T03:34:52.173Z,107
2015-05-14T03:35:10.409Z,109
2015-05-14T03:35:28.675Z,110
2015-05-14T03:35:46.925Z,110
2015-05-14T03:36:05.162Z,111
2015-05-14T03:36:23.428Z,112
2015-05-14T03:36:41.678Z,112
2015-05-14T03:36:59.912Z,113
2015-05-14T03:37:18.180Z,113
2015-05-14T03:37:36.414Z,113
2015-05-14T03:37:54.664Z,114
2015-05-14T03:38:12.916Z,114
2015-05-14T03:38:31.151Z,116
2015-05-14T03:38:49.401Z,117
2015-05-14T03:39:07.654Z,118
2015-05-14T03:39:25.888Z,118
2015-05-14T03:39:44.138Z,119
2015-05-14T03:40:01.935Z,119
2015-05-14T03:40:20.015Z,120
2015-05-14T03:40:38.265Z,122
2015-05-14T03:40:56.515Z,123
2015-05-14T03:41:14.767Z,123
2015-05-14T03:41:33.001Z,123
2015-05-14T03:41:51.251Z,124
2015-05-14T03:42:09.501Z,125
2015-05-14T03:42:27.754Z,125
2015-05-14T03:42:46.004Z,125
2015-05-14T03:43:04.254Z,126
2015-05-14T03:43:22.506Z,127
2015-05-14T03:43:40.756Z,128
2015-05-14T03:43:59.006Z,130
2015-05-14T03:44:17.256Z,134
2015-05-14T03:44:35.509Z,137
2015-05-14T03:44:53.759Z,139
2015-05-14T03:45:11.994Z,139
2015-05-14T03:45:30.246Z,139
2015-05-14T03:45:48.496Z,137
2015-05-14T03:46:06.746Z,135
2015-05-14T03:46:24.983Z,134
2015-05-14T03:46:43.233Z,133
2015-05-14T03:47:01.483Z,133
2015-05-14T03:47:19.733Z,133
2015-05-14T03:47:37.970Z,134
2015-05-14T03:47:56.220Z,135
2015-05-14T03:48:14.470Z,137
2015-05-14T03:48:32.723Z,137
2015-05-14T03:48:50.973Z,137
2015-05-14T03:49:09.238Z,138
2015-05-14T03:49:27.459Z,138
2015-05-14T03:49:45.709Z,141
2015-05-14T03:50:03.975Z,142
2015-05-14T03:50:22.209Z,142
2015-05-14T03:50:40.461Z,142
2015-05-14T03:50:58.711Z,142
2015-05-14T03:51:16.961Z,142
2015-05-14T03:51:35.198Z,143
2015-05-14T03:51:53.448Z,144
2015-05-14T03:52:11.698Z,145
2015-05-14T03:52:29.949Z,146
2015-05-14T03:52:48.199Z,146
2015-05-14T03:53:06.449Z,146
2015-05-14T03:53:24.689Z,147
2015-05-14T03:53:42.945Z,148
2015-05-14T03:54:01.210Z,150
2015-05-14T03:54:19.476Z,153
2015-05-14T03:54:37.729Z,155
2015-05-14T03:54:55.979Z,157
2015-05-14T03:55:14.229Z,157
2015-05-14T03:55:32.482Z,159
2015-05-14T03:55:50.732Z,161
2015-05-14T03:56:08.982Z,162
2015-05-14T03:56:27.263Z,164
2015-05-14T03:56:45.549Z,165
2015-05-14T03:57:03.784Z,168
2015-05-14T03:57:22.034Z,171
2015-05-14T03:57:40.287Z,171
2015-05-14T03:57:58.537Z,170
2015-05-14T03:58:16.787Z,169
2015-05-14T03:58:35.039Z,168
2015-05-14T03:58:53.289Z,167
2015-05-14T03:59:11.554Z,167
2015-05-14T03:59:29.789Z,168
2015-05-14T03:59:48.042Z,168
2015-05-14T04:00:06.292Z,170
2015-05-14T04:00:24.542Z,173
2015-05-14T04:00:42.794Z,176
2015-05-14T04:01:01.044Z,181
2015-05-14T04:01:19.294Z,186
2015-05-14T04:01:37.544Z,187
2015-05-14T04:01:55.797Z,188
2015-05-14T04:02:14.047Z,186
2015-05-14T04:02:32.297Z,187
2015-05-14T04:02:50.549Z,187
2015-05-14T04:03:08.814Z,187
2015-05-14T04:03:27.049Z,186
2015-05-14T04:03:45.299Z,188
2015-05-14T04:04:03.552Z,189
2015-05-14T04:04:21.802Z,190
2015-05-14T04:04:40.052Z,190
2015-05-14T04:04:58.304Z,189
2015-05-14T04:05:16.538Z,189
2015-05-14T04:05:34.788Z,189
2015-05-14T04:05:53.050Z,189
2015-05-14T04:06:11.300Z,190
2015-05-14T04:06:29.550Z,191
2015-05-14T04:06:47.800Z,191
2015-05-14T04:07:06.067Z,190
2015-05-14T04:07:24.317Z,192
2015-05-14T04:07:42.567Z,193
2015-05-14T04:08:00.834Z,195
2015-05-14T04:08:19.084Z,191
2015-05-14T04:08:37.334Z,189
2015-05-14T04:08:55.585Z,187
2015-05-14T04:09:13.835Z,185
2015-05-14T04:09:32.101Z,184
2015-05-14T04:09:50.351Z,184
2015-05-14T04:10:08.617Z,185
2015-05-14T04:10:26.851Z,185
2015-05-14T04:10:45.101Z,186
2015-05-14T04:11:03.361Z,188
2015-05-14T04:11:21.611Z,188
2015-05-14T04:11:39.861Z,187
2015-05-14T04:11:58.119Z,185
2015-05-14T04:12:16.354Z,182
2015-05-14T04:12:34.604Z,180
2015-05-14T04:12:52.854Z,179
2015-05-14T04:13:11.126Z,179
2015-05-14T04:13:29.376Z,180
2015-05-14T04:13:47.626Z,182
2015-05-14T04:14:05.868Z,182
2015-05-14T04:14:24.133Z,184
2015-05-14T04:14:42.383Z,187
2015-05-14T04:15:00.625Z,188
2015-05-14T04:15:18.890Z,190
2015-05-14T04:15:37.140Z,193
2015-05-14T04:15:55.390Z,196
2015-05-14T04:16:13.646Z,197
2015-05-14T04:16:31.896Z,198
2015-05-14T04:16:50.146Z,199
2015-05-14T04:17:08.400Z,197
2015-05-14T04:17:26.635Z,195
2015-05-14T04:17:44.885Z,194
2015-05-14T04:18:03.139Z,193
2015-05-14T04:18:21.389Z,193
2015-05-14T04:18:39.639Z,194
2015-05-14T04:18:57.889Z,195
2015-05-14T04:19:16.143Z,197
2015-05-14T04:19:34.393Z,199
2015-05-14T04:19:52.627Z,200
2015-05-14T04:20:10.882Z,201
2015-05-14T04:20:29.132Z,205
2015-05-14T04:20:47.382Z,208
2015-05-14T04:21:05.632Z,211
2015-05-14T04:21:23.869Z,213
2015-05-14T04:21:42.135Z,213
2015-05-14T04:22:00.385Z,215
2015-05-14T04:22:18.638Z,215
2015-05-14T04:22:36.888Z,217
2015-05-14T04:22:55.138Z,219
2015-05-14T04:23:13.388Z,222
2015-05-14T04:23:31.641Z,221
2015-05-14T04:23:49.891Z,222
2015-05-14T04:24:08.141Z,223
2015-05-14T04:24:26.393Z,222